sensor_id;sensor_type;location;lat;lon;timestamp;P1;durP1;ratioP1;P2;durP2;ratioP2
71091;SDS011;58751;50.708;7.134;2022-09-03T00:00:50;2.60;;;2.40;;
71091;SDS011;58751;50.708;7.134;2022-09-03T00:03:17;2.67;;;2.00;;
71091;SDS011;58751;50.708;7.134;2022-09-03T00:05:45;2.67;;;2.47;;
71091;SDS011;58751;50.708;7.134;2022-09-03T00:08:13;2.03;;;1.80;;
71091;SDS011;58751;50.708;7.134;2022-09-03T00:10:41;5.57;;;2.43;;
71091;SDS011;58751;50.708;7.134;2022-09-03T00:13:07;3.33;;;1.77;;
71091;SDS011;58751;50.708;7.134;2022-09-03T00:15:34;2.40;;;2.20;;
71091;SDS011;58751;50.708;7.134;2022-09-03T00:18:02;3.40;;;2.20;;
71091;SDS011;58751;50.708;7.134;2022-09-03T00:20:30;2.43;;;2.23;;
71091;SDS011;58751;50.708;7.134;2022-09-03T00:22:56;5.80;;;2.30;;
71091;SDS011;58751;50.708;7.134;2022-09-03T00:25:23;2.30;;;2.10;;
71091;SDS011;58751;50.708;7.134;2022-09-03T00:27:52;5.50;;;2.03;;
71091;SDS011;58751;50.708;7.134;2022-09-03T00:30:18;3.00;;;2.40;;
71091;SDS011;58751;50.708;7.134;2022-09-03T00:32:45;2.30;;;2.10;;
71091;SDS011;58751;50.708;7.134;2022-09-03T00:35:13;2.20;;;2.07;;
71091;SDS011;58751;50.708;7.134;2022-09-03T00:37:39;3.00;;;1.90;;
71091;SDS011;58751;50.708;7.134;2022-09-03T00:40:05;2.90;;;2.23;;
71091;SDS011;58751;50.708;7.134;2022-09-03T00:42:38;5.13;;;2.27;;
71091;SDS011;58751;50.708;7.134;2022-09-03T00:45:09;2.30;;;2.10;;
71091;SDS011;58751;50.708;7.134;2022-09-03T00:47:39;2.20;;;2.00;;
71091;SDS011;58751;50.708;7.134;2022-09-03T00:50:08;3.53;;;2.30;;
71091;SDS011;58751;50.708;7.134;2022-09-03T00:52:40;2.50;;;1.97;;
71091;SDS011;58751;50.708;7.134;2022-09-03T00:55:12;2.33;;;2.07;;
71091;SDS011;58751;50.708;7.134;2022-09-03T00:57:43;4.20;;;2.60;;
71091;SDS011;58751;50.708;7.134;2022-09-03T01:00:14;2.13;;;2.03;;
71091;SDS011;58751;50.708;7.134;2022-09-03T01:02:43;3.73;;;1.93;;
71091;SDS011;58751;50.708;7.134;2022-09-03T01:05:17;3.07;;;1.83;;
71091;SDS011;58751;50.708;7.134;2022-09-03T01:07:45;2.57;;;2.30;;
71091;SDS011;58751;50.708;7.134;2022-09-03T01:10:15;2.50;;;1.60;;
71091;SDS011;58751;50.708;7.134;2022-09-03T01:12:47;9.53;;;2.10;;
71091;SDS011;58751;50.708;7.134;2022-09-03T01:15:16;4.27;;;2.43;;
71091;SDS011;58751;50.708;7.134;2022-09-03T01:17:47;2.63;;;2.30;;
71091;SDS011;58751;50.708;7.134;2022-09-03T01:20:22;3.57;;;2.10;;
71091;SDS011;58751;50.708;7.134;2022-09-03T01:22:57;1.93;;;1.80;;
71091;SDS011;58751;50.708;7.134;2022-09-03T01:25:34;1.87;;;1.77;;
71091;SDS011;58751;50.708;7.134;2022-09-03T01:28:07;4.00;;;1.83;;
71091;SDS011;58751;50.708;7.134;2022-09-03T01:30:35;2.10;;;1.90;;
71091;SDS011;58751;50.708;7.134;2022-09-03T01:33:03;1.77;;;1.67;;
71091;SDS011;58751;50.708;7.134;2022-09-03T01:35:30;1.90;;;1.80;;
71091;SDS011;58751;50.708;7.134;2022-09-03T01:38:00;3.13;;;1.77;;
71091;SDS011;58751;50.708;7.134;2022-09-03T01:40:32;2.00;;;1.90;;
71091;SDS011;58751;50.708;7.134;2022-09-03T01:43:03;2.60;;;2.13;;
71091;SDS011;58751;50.708;7.134;2022-09-03T01:45:34;2.03;;;1.37;;
71091;SDS011;58751;50.708;7.134;2022-09-03T01:48:04;2.90;;;1.70;;
71091;SDS011;58751;50.708;7.134;2022-09-03T01:50:37;4.73;;;1.93;;
71091;SDS011;58751;50.708;7.134;2022-09-03T01:53:04;2.10;;;1.73;;
71091;SDS011;58751;50.708;7.134;2022-09-03T01:55:32;2.10;;;1.53;;
71091;SDS011;58751;50.708;7.134;2022-09-03T01:58:04;1.63;;;1.40;;
71091;SDS011;58751;50.708;7.134;2022-09-03T02:00:30;2.50;;;1.60;;
71091;SDS011;58751;50.708;7.134;2022-09-03T02:02:59;2.27;;;1.30;;
71091;SDS011;58751;50.708;7.134;2022-09-03T02:05:26;2.33;;;1.70;;
71091;SDS011;58751;50.708;7.134;2022-09-03T02:07:54;4.53;;;1.87;;
71091;SDS011;58751;50.708;7.134;2022-09-03T02:10:20;1.30;;;1.20;;
71091;SDS011;58751;50.708;7.134;2022-09-03T02:12:47;2.00;;;1.70;;
71091;SDS011;58751;50.708;7.134;2022-09-03T02:15:14;1.93;;;1.30;;
71091;SDS011;58751;50.708;7.134;2022-09-03T02:17:40;4.20;;;1.50;;
71091;SDS011;58751;50.708;7.134;2022-09-03T02:20:08;4.07;;;1.60;;
71091;SDS011;58751;50.708;7.134;2022-09-03T02:22:33;1.50;;;1.40;;
71091;SDS011;58751;50.708;7.134;2022-09-03T02:24:59;2.70;;;1.50;;
71091;SDS011;58751;50.708;7.134;2022-09-03T02:27:24;1.60;;;1.50;;
71091;SDS011;58751;50.708;7.134;2022-09-03T02:29:50;3.43;;;1.30;;
71091;SDS011;58751;50.708;7.134;2022-09-03T02:32:15;1.67;;;1.53;;
71091;SDS011;58751;50.708;7.134;2022-09-03T02:34:40;1.90;;;1.70;;
71091;SDS011;58751;50.708;7.134;2022-09-03T02:37:12;2.10;;;1.60;;
71091;SDS011;58751;50.708;7.134;2022-09-03T02:39:37;2.90;;;1.77;;
71091;SDS011;58751;50.708;7.134;2022-09-03T02:42:02;2.10;;;1.67;;
71091;SDS011;58751;50.708;7.134;2022-09-03T02:44:28;1.57;;;1.37;;
71091;SDS011;58751;50.708;7.134;2022-09-03T02:46:56;1.40;;;1.30;;
71091;SDS011;58751;50.708;7.134;2022-09-03T02:49:21;2.77;;;1.50;;
71091;SDS011;58751;50.708;7.134;2022-09-03T02:51:47;1.80;;;1.57;;
71091;SDS011;58751;50.708;7.134;2022-09-03T02:54:13;1.57;;;1.47;;
71091;SDS011;58751;50.708;7.134;2022-09-03T02:56:38;2.10;;;1.77;;
71091;SDS011;58751;50.708;7.134;2022-09-03T02:59:05;2.50;;;1.50;;
71091;SDS011;58751;50.708;7.134;2022-09-03T03:01:30;3.17;;;1.37;;
71091;SDS011;58751;50.708;7.134;2022-09-03T03:03:56;3.03;;;1.70;;
71091;SDS011;58751;50.708;7.134;2022-09-03T03:06:21;1.63;;;1.53;;
71091;SDS011;58751;50.708;7.134;2022-09-03T03:08:47;1.90;;;1.20;;
71091;SDS011;58751;50.708;7.134;2022-09-03T03:11:14;1.60;;;1.50;;
71091;SDS011;58751;50.708;7.134;2022-09-03T03:13:40;2.60;;;1.40;;
71091;SDS011;58751;50.708;7.134;2022-09-03T03:16:05;2.10;;;1.50;;
71091;SDS011;58751;50.708;7.134;2022-09-03T03:18:30;2.80;;;1.33;;
71091;SDS011;58751;50.708;7.134;2022-09-03T03:20:56;3.13;;;1.47;;
71091;SDS011;58751;50.708;7.134;2022-09-03T03:23:21;1.73;;;1.63;;
71091;SDS011;58751;50.708;7.134;2022-09-03T03:25:46;3.90;;;1.50;;
71091;SDS011;58751;50.708;7.134;2022-09-03T03:28:13;3.83;;;1.83;;
71091;SDS011;58751;50.708;7.134;2022-09-03T03:30:38;1.23;;;1.23;;
71091;SDS011;58751;50.708;7.134;2022-09-03T03:33:03;1.63;;;1.53;;
71091;SDS011;58751;50.708;7.134;2022-09-03T03:35:29;1.67;;;1.57;;
71091;SDS011;58751;50.708;7.134;2022-09-03T03:37:56;1.73;;;1.57;;
71091;SDS011;58751;50.708;7.134;2022-09-03T03:40:21;1.50;;;1.40;;
71091;SDS011;58751;50.708;7.134;2022-09-03T03:42:46;1.80;;;1.70;;
71091;SDS011;58751;50.708;7.134;2022-09-03T03:45:13;4.47;;;1.73;;
71091;SDS011;58751;50.708;7.134;2022-09-03T03:47:38;3.03;;;1.60;;
71091;SDS011;58751;50.708;7.134;2022-09-03T03:50:04;2.77;;;1.57;;
71091;SDS011;58751;50.708;7.134;2022-09-03T03:52:29;3.50;;;1.93;;
71091;SDS011;58751;50.708;7.134;2022-09-03T03:54:54;3.10;;;1.40;;
71091;SDS011;58751;50.708;7.134;2022-09-03T03:57:19;1.83;;;1.60;;
71091;SDS011;58751;50.708;7.134;2022-09-03T03:59:45;1.73;;;1.50;;
71091;SDS011;58751;50.708;7.134;2022-09-03T04:02:11;1.73;;;1.63;;
71091;SDS011;58751;50.708;7.134;2022-09-03T04:04:37;1.80;;;1.40;;
71091;SDS011;58751;50.708;7.134;2022-09-03T04:07:02;1.63;;;1.33;;
71091;SDS011;58751;50.708;7.134;2022-09-03T04:09:27;1.63;;;1.53;;
71091;SDS011;58751;50.708;7.134;2022-09-03T04:11:52;1.67;;;1.57;;
71091;SDS011;58751;50.708;7.134;2022-09-03T04:14:18;2.10;;;1.77;;
71091;SDS011;58751;50.708;7.134;2022-09-03T04:16:43;1.80;;;1.70;;
71091;SDS011;58751;50.708;7.134;2022-09-03T04:19:09;1.67;;;1.57;;
71091;SDS011;58751;50.708;7.134;2022-09-03T04:21:35;3.60;;;1.67;;
71091;SDS011;58751;50.708;7.134;2022-09-03T04:24:02;1.70;;;1.60;;
71091;SDS011;58751;50.708;7.134;2022-09-03T04:26:28;1.57;;;1.47;;
71091;SDS011;58751;50.708;7.134;2022-09-03T04:28:54;2.77;;;1.63;;
71091;SDS011;58751;50.708;7.134;2022-09-03T04:31:19;1.50;;;1.40;;
71091;SDS011;58751;50.708;7.134;2022-09-03T04:33:45;1.43;;;1.30;;
71091;SDS011;58751;50.708;7.134;2022-09-03T04:36:12;1.50;;;1.40;;
71091;SDS011;58751;50.708;7.134;2022-09-03T04:38:38;1.47;;;1.37;;
71091;SDS011;58751;50.708;7.134;2022-09-03T04:41:04;2.73;;;1.70;;
71091;SDS011;58751;50.708;7.134;2022-09-03T04:43:30;1.13;;;1.10;;
71091;SDS011;58751;50.708;7.134;2022-09-03T04:45:56;2.40;;;1.60;;
71091;SDS011;58751;50.708;7.134;2022-09-03T04:48:21;1.47;;;1.37;;
71091;SDS011;58751;50.708;7.134;2022-09-03T04:50:46;1.80;;;1.67;;
71091;SDS011;58751;50.708;7.134;2022-09-03T04:53:13;2.20;;;2.00;;
71091;SDS011;58751;50.708;7.134;2022-09-03T04:55:38;2.37;;;1.63;;
71091;SDS011;58751;50.708;7.134;2022-09-03T04:58:03;2.57;;;1.57;;
71091;SDS011;58751;50.708;7.134;2022-09-03T05:00:29;1.93;;;1.77;;
71091;SDS011;58751;50.708;7.134;2022-09-03T05:02:54;1.33;;;1.23;;
71091;SDS011;58751;50.708;7.134;2022-09-03T05:05:19;1.63;;;1.30;;
71091;SDS011;58751;50.708;7.134;2022-09-03T05:07:44;2.17;;;1.97;;
71091;SDS011;58751;50.708;7.134;2022-09-03T05:10:11;2.00;;;1.90;;
71091;SDS011;58751;50.708;7.134;2022-09-03T05:12:36;3.80;;;1.40;;
71091;SDS011;58751;50.708;7.134;2022-09-03T05:15:02;2.10;;;1.70;;
71091;SDS011;58751;50.708;7.134;2022-09-03T05:17:27;1.87;;;1.77;;
71091;SDS011;58751;50.708;7.134;2022-09-03T05:19:52;1.40;;;1.30;;
71091;SDS011;58751;50.708;7.134;2022-09-03T05:22:18;1.80;;;1.60;;
71091;SDS011;58751;50.708;7.134;2022-09-03T05:24:43;2.67;;;1.50;;
71091;SDS011;58751;50.708;7.134;2022-09-03T05:27:10;2.00;;;1.63;;
71091;SDS011;58751;50.708;7.134;2022-09-03T05:29:35;2.17;;;1.30;;
71091;SDS011;58751;50.708;7.134;2022-09-03T05:32:00;1.90;;;1.70;;
71091;SDS011;58751;50.708;7.134;2022-09-03T05:34:25;3.83;;;1.70;;
71091;SDS011;58751;50.708;7.134;2022-09-03T05:36:51;3.67;;;1.60;;
71091;SDS011;58751;50.708;7.134;2022-09-03T05:39:16;1.50;;;1.40;;
71091;SDS011;58751;50.708;7.134;2022-09-03T05:41:41;3.03;;;1.70;;
71091;SDS011;58751;50.708;7.134;2022-09-03T05:44:08;1.50;;;1.37;;
71091;SDS011;58751;50.708;7.134;2022-09-03T05:46:33;2.43;;;1.50;;
71091;SDS011;58751;50.708;7.134;2022-09-03T05:48:58;1.57;;;1.47;;
71091;SDS011;58751;50.708;7.134;2022-09-03T05:51:24;3.90;;;1.50;;
71091;SDS011;58751;50.708;7.134;2022-09-03T05:53:49;1.47;;;1.37;;
71091;SDS011;58751;50.708;7.134;2022-09-03T05:56:15;1.30;;;1.20;;
71091;SDS011;58751;50.708;7.134;2022-09-03T05:58:41;1.47;;;1.30;;
71091;SDS011;58751;50.708;7.134;2022-09-03T06:01:11;1.80;;;1.20;;
71091;SDS011;58751;50.708;7.134;2022-09-03T06:03:37;1.50;;;1.40;;
71091;SDS011;58751;50.708;7.134;2022-09-03T06:06:02;2.80;;;1.70;;
71091;SDS011;58751;50.708;7.134;2022-09-03T06:08:27;2.30;;;1.50;;
71091;SDS011;58751;50.708;7.134;2022-09-03T06:10:56;1.70;;;1.20;;
71091;SDS011;58751;50.708;7.134;2022-09-03T06:13:21;2.73;;;1.77;;
71091;SDS011;58751;50.708;7.134;2022-09-03T06:15:47;1.40;;;1.30;;
71091;SDS011;58751;50.708;7.134;2022-09-03T06:18:13;1.43;;;1.33;;
71091;SDS011;58751;50.708;7.134;2022-09-03T06:20:38;2.50;;;1.47;;
71091;SDS011;58751;50.708;7.134;2022-09-03T06:23:04;1.67;;;1.30;;
71091;SDS011;58751;50.708;7.134;2022-09-03T06:25:29;3.70;;;1.50;;
71091;SDS011;58751;50.708;7.134;2022-09-03T06:27:54;2.17;;;1.50;;
71091;SDS011;58751;50.708;7.134;2022-09-03T06:30:19;1.63;;;1.23;;
71091;SDS011;58751;50.708;7.134;2022-09-03T06:32:45;1.47;;;1.33;;
71091;SDS011;58751;50.708;7.134;2022-09-03T06:35:12;1.30;;;1.20;;
71091;SDS011;58751;50.708;7.134;2022-09-03T06:37:38;1.80;;;1.30;;
71091;SDS011;58751;50.708;7.134;2022-09-03T06:40:03;2.10;;;1.17;;
71091;SDS011;58751;50.708;7.134;2022-09-03T06:42:28;3.53;;;1.70;;
71091;SDS011;58751;50.708;7.134;2022-09-03T06:44:54;1.30;;;1.20;;
71091;SDS011;58751;50.708;7.134;2022-09-03T06:47:19;3.80;;;1.67;;
71091;SDS011;58751;50.708;7.134;2022-09-03T06:49:44;3.43;;;1.23;;
71091;SDS011;58751;50.708;7.134;2022-09-03T06:52:11;1.77;;;1.53;;
71091;SDS011;58751;50.708;7.134;2022-09-03T06:54:36;1.90;;;1.30;;
71091;SDS011;58751;50.708;7.134;2022-09-03T06:57:01;2.97;;;1.57;;
71091;SDS011;58751;50.708;7.134;2022-09-03T06:59:26;3.23;;;1.73;;
71091;SDS011;58751;50.708;7.134;2022-09-03T07:01:51;1.50;;;1.40;;
71091;SDS011;58751;50.708;7.134;2022-09-03T07:04:17;1.63;;;1.53;;
71091;SDS011;58751;50.708;7.134;2022-09-03T07:06:42;1.23;;;1.13;;
71091;SDS011;58751;50.708;7.134;2022-09-03T07:09:09;2.70;;;1.00;;
71091;SDS011;58751;50.708;7.134;2022-09-03T07:11:34;2.60;;;1.73;;
71091;SDS011;58751;50.708;7.134;2022-09-03T07:14:00;1.80;;;1.27;;
71091;SDS011;58751;50.708;7.134;2022-09-03T07:16:26;2.50;;;1.53;;
71091;SDS011;58751;50.708;7.134;2022-09-03T07:18:53;1.90;;;1.57;;
71091;SDS011;58751;50.708;7.134;2022-09-03T07:21:19;1.93;;;1.50;;
71091;SDS011;58751;50.708;7.134;2022-09-03T07:23:45;6.33;;;2.50;;
71091;SDS011;58751;50.708;7.134;2022-09-03T07:26:13;5.60;;;2.33;;
71091;SDS011;58751;50.708;7.134;2022-09-03T07:28:39;3.73;;;2.23;;
71091;SDS011;58751;50.708;7.134;2022-09-03T07:31:05;6.10;;;2.30;;
71091;SDS011;58751;50.708;7.134;2022-09-03T07:33:31;2.73;;;2.53;;
71091;SDS011;58751;50.708;7.134;2022-09-03T07:36:00;6.00;;;3.30;;
71091;SDS011;58751;50.708;7.134;2022-09-03T07:38:26;4.73;;;3.10;;
71091;SDS011;58751;50.708;7.134;2022-09-03T07:40:56;6.33;;;3.13;;
71091;SDS011;58751;50.708;7.134;2022-09-03T07:43:22;3.93;;;3.27;;
71091;SDS011;58751;50.708;7.134;2022-09-03T07:45:49;4.30;;;3.90;;
71091;SDS011;58751;50.708;7.134;2022-09-03T07:48:14;4.00;;;3.70;;
71091;SDS011;58751;50.708;7.134;2022-09-03T07:50:39;4.10;;;3.80;;
71091;SDS011;58751;50.708;7.134;2022-09-03T07:53:04;3.50;;;3.20;;
71091;SDS011;58751;50.708;7.134;2022-09-03T07:55:30;4.00;;;3.67;;
71091;SDS011;58751;50.708;7.134;2022-09-03T07:57:55;4.53;;;3.93;;
71091;SDS011;58751;50.708;7.134;2022-09-03T08:00:23;3.87;;;3.60;;
71091;SDS011;58751;50.708;7.134;2022-09-03T08:02:50;3.50;;;3.25;;
71091;SDS011;58751;50.708;7.134;2022-09-03T08:05:15;5.28;;;3.25;;
71091;SDS011;58751;50.708;7.134;2022-09-03T08:07:40;4.20;;;3.90;;
71091;SDS011;58751;50.708;7.134;2022-09-03T08:10:06;4.80;;;4.50;;
71091;SDS011;58751;50.708;7.134;2022-09-03T08:12:31;3.80;;;3.60;;
71091;SDS011;58751;50.708;7.134;2022-09-03T08:14:56;3.50;;;3.20;;
71091;SDS011;58751;50.708;7.134;2022-09-03T08:17:23;4.17;;;3.87;;
71091;SDS011;58751;50.708;7.134;2022-09-03T08:19:48;3.10;;;2.90;;
71091;SDS011;58751;50.708;7.134;2022-09-03T08:22:13;5.40;;;3.90;;
71091;SDS011;58751;50.708;7.134;2022-09-03T08:24:38;3.97;;;3.63;;
71091;SDS011;58751;50.708;7.134;2022-09-03T08:27:04;4.73;;;4.43;;
71091;SDS011;58751;50.708;7.134;2022-09-03T08:29:29;4.70;;;4.30;;
71091;SDS011;58751;50.708;7.134;2022-09-03T08:31:54;5.27;;;4.10;;
71091;SDS011;58751;50.708;7.134;2022-09-03T08:34:21;5.67;;;4.63;;
71091;SDS011;58751;50.708;7.134;2022-09-03T08:36:46;4.00;;;3.70;;
71091;SDS011;58751;50.708;7.134;2022-09-03T08:39:11;4.37;;;3.80;;
71091;SDS011;58751;50.708;7.134;2022-09-03T08:41:40;4.33;;;3.97;;
71091;SDS011;58751;50.708;7.134;2022-09-03T08:44:08;3.53;;;3.33;;
71091;SDS011;58751;50.708;7.134;2022-09-03T08:46:40;4.60;;;4.10;;
71091;SDS011;58751;50.708;7.134;2022-09-03T08:49:08;3.13;;;2.93;;
71091;SDS011;58751;50.708;7.134;2022-09-03T08:51:35;3.80;;;3.50;;
71091;SDS011;58751;50.708;7.134;2022-09-03T08:54:01;3.60;;;3.30;;
71091;SDS011;58751;50.708;7.134;2022-09-03T08:56:26;3.40;;;3.00;;
71091;SDS011;58751;50.708;7.134;2022-09-03T08:58:52;3.50;;;3.20;;
71091;SDS011;58751;50.708;7.134;2022-09-03T09:01:20;4.27;;;3.87;;
71091;SDS011;58751;50.708;7.134;2022-09-03T09:03:49;3.67;;;3.40;;
71091;SDS011;58751;50.708;7.134;2022-09-03T09:06:18;2.83;;;2.63;;
71091;SDS011;58751;50.708;7.134;2022-09-03T09:08:50;3.37;;;2.70;;
71091;SDS011;58751;50.708;7.134;2022-09-03T09:11:19;3.67;;;2.83;;
71091;SDS011;58751;50.708;7.134;2022-09-03T09:13:49;3.20;;;2.90;;
71091;SDS011;58751;50.708;7.134;2022-09-03T09:16:19;3.00;;;2.73;;
71091;SDS011;58751;50.708;7.134;2022-09-03T09:18:48;2.50;;;2.30;;
71091;SDS011;58751;50.708;7.134;2022-09-03T09:21:17;7.93;;;2.80;;
71091;SDS011;58751;50.708;7.134;2022-09-03T09:23:45;2.70;;;2.50;;
71091;SDS011;58751;50.708;7.134;2022-09-03T09:26:12;2.33;;;2.20;;
71091;SDS011;58751;50.708;7.134;2022-09-03T09:28:38;2.57;;;2.00;;
71091;SDS011;58751;50.708;7.134;2022-09-03T09:31:04;3.20;;;2.23;;
71091;SDS011;58751;50.708;7.134;2022-09-03T09:33:30;1.90;;;1.80;;
71091;SDS011;58751;50.708;7.134;2022-09-03T09:35:57;2.73;;;2.20;;
71091;SDS011;58751;50.708;7.134;2022-09-03T09:38:26;3.00;;;2.10;;
71091;SDS011;58751;50.708;7.134;2022-09-03T09:40:52;3.17;;;1.87;;
71091;SDS011;58751;50.708;7.134;2022-09-03T09:43:19;5.43;;;1.60;;
71091;SDS011;58751;50.708;7.134;2022-09-03T09:45:45;1.87;;;1.77;;
71091;SDS011;58751;50.708;7.134;2022-09-03T09:48:15;3.90;;;1.87;;
71091;SDS011;58751;50.708;7.134;2022-09-03T09:50:41;3.80;;;2.20;;
71091;SDS011;58751;50.708;7.134;2022-09-03T09:53:08;1.90;;;1.80;;
71091;SDS011;58751;50.708;7.134;2022-09-03T09:55:33;4.47;;;2.10;;
71091;SDS011;58751;50.708;7.134;2022-09-03T09:58:05;2.53;;;1.70;;
71091;SDS011;58751;50.708;7.134;2022-09-03T10:00:31;1.70;;;1.60;;
71091;SDS011;58751;50.708;7.134;2022-09-03T10:02:56;2.47;;;2.00;;
71091;SDS011;58751;50.708;7.134;2022-09-03T10:05:23;4.33;;;2.10;;
71091;SDS011;58751;50.708;7.134;2022-09-03T10:07:53;2.77;;;2.20;;
71091;SDS011;58751;50.708;7.134;2022-09-03T10:10:19;1.90;;;1.80;;
71091;SDS011;58751;50.708;7.134;2022-09-03T10:12:45;2.60;;;2.07;;
71091;SDS011;58751;50.708;7.134;2022-09-03T10:15:16;2.60;;;2.40;;
71091;SDS011;58751;50.708;7.134;2022-09-03T10:17:48;1.87;;;1.77;;
71091;SDS011;58751;50.708;7.134;2022-09-03T10:20:18;2.73;;;1.93;;
71091;SDS011;58751;50.708;7.134;2022-09-03T10:22:44;4.37;;;2.70;;
71091;SDS011;58751;50.708;7.134;2022-09-03T10:25:11;2.50;;;2.30;;
71091;SDS011;58751;50.708;7.134;2022-09-03T10:27:39;3.70;;;2.53;;
71091;SDS011;58751;50.708;7.134;2022-09-03T10:30:04;4.43;;;3.00;;
71091;SDS011;58751;50.708;7.134;2022-09-03T10:32:32;3.23;;;2.93;;
71091;SDS011;58751;50.708;7.134;2022-09-03T10:35:03;2.30;;;2.10;;
71091;SDS011;58751;50.708;7.134;2022-09-03T10:37:32;4.30;;;2.03;;
71091;SDS011;58751;50.708;7.134;2022-09-03T10:40:05;2.63;;;2.43;;
71091;SDS011;58751;50.708;7.134;2022-09-03T10:42:37;7.73;;;2.80;;
71091;SDS011;58751;50.708;7.134;2022-09-03T10:45:07;3.33;;;2.37;;
71091;SDS011;58751;50.708;7.134;2022-09-03T10:47:40;2.60;;;2.40;;
71091;SDS011;58751;50.708;7.134;2022-09-03T10:50:11;5.77;;;2.73;;
71091;SDS011;58751;50.708;7.134;2022-09-03T10:52:39;3.27;;;2.53;;
71091;SDS011;58751;50.708;7.134;2022-09-03T10:55:11;5.80;;;3.10;;
71091;SDS011;58751;50.708;7.134;2022-09-03T10:57:40;3.23;;;2.70;;
71091;SDS011;58751;50.708;7.134;2022-09-03T11:00:09;3.67;;;2.70;;
71091;SDS011;58751;50.708;7.134;2022-09-03T11:02:45;4.77;;;2.60;;
71091;SDS011;58751;50.708;7.134;2022-09-03T11:05:17;2.63;;;2.43;;
71091;SDS011;58751;50.708;7.134;2022-09-03T11:07:44;3.53;;;3.07;;
71091;SDS011;58751;50.708;7.134;2022-09-03T11:10:12;2.57;;;2.37;;
71091;SDS011;58751;50.708;7.134;2022-09-03T11:12:39;5.37;;;2.93;;
71091;SDS011;58751;50.708;7.134;2022-09-03T11:15:08;4.97;;;2.90;;
71091;SDS011;58751;50.708;7.134;2022-09-03T11:17:36;2.90;;;2.60;;
71091;SDS011;58751;50.708;7.134;2022-09-03T11:20:05;3.43;;;1.93;;
71091;SDS011;58751;50.708;7.134;2022-09-03T11:22:36;2.67;;;2.47;;
71091;SDS011;58751;50.708;7.134;2022-09-03T11:25:01;2.70;;;2.50;;
71091;SDS011;58751;50.708;7.134;2022-09-03T11:27:31;2.83;;;2.63;;
71091;SDS011;58751;50.708;7.134;2022-09-03T11:30:00;2.80;;;2.60;;
71091;SDS011;58751;50.708;7.134;2022-09-03T11:32:28;5.47;;;2.90;;
71091;SDS011;58751;50.708;7.134;2022-09-03T11:34:56;3.17;;;2.77;;
71091;SDS011;58751;50.708;7.134;2022-09-03T11:37:22;3.53;;;2.80;;
71091;SDS011;58751;50.708;7.134;2022-09-03T11:40:03;3.80;;;3.23;;
71091;SDS011;58751;50.708;7.134;2022-09-03T11:42:29;4.00;;;3.00;;
71091;SDS011;58751;50.708;7.134;2022-09-03T11:44:58;2.47;;;2.37;;
71091;SDS011;58751;50.708;7.134;2022-09-03T11:47:36;5.30;;;3.07;;
71091;SDS011;58751;50.708;7.134;2022-09-03T11:50:04;3.70;;;2.73;;
71091;SDS011;58751;50.708;7.134;2022-09-03T11:52:30;3.20;;;3.00;;
71091;SDS011;58751;50.708;7.134;2022-09-03T11:54:55;2.37;;;2.27;;
71091;SDS011;58751;50.708;7.134;2022-09-03T11:57:24;3.07;;;2.13;;
71091;SDS011;58751;50.708;7.134;2022-09-03T11:59:50;3.57;;;2.97;;
71091;SDS011;58751;50.708;7.134;2022-09-03T12:02:19;3.30;;;3.00;;
71091;SDS011;58751;50.708;7.134;2022-09-03T12:04:48;2.87;;;2.67;;
71091;SDS011;58751;50.708;7.134;2022-09-03T12:07:28;5.07;;;2.73;;
71091;SDS011;58751;50.708;7.134;2022-09-03T12:10:01;3.53;;;3.30;;
71091;SDS011;58751;50.708;7.134;2022-09-03T12:12:39;2.87;;;2.67;;
71091;SDS011;58751;50.708;7.134;2022-09-03T12:15:09;3.40;;;3.10;;
71091;SDS011;58751;50.708;7.134;2022-09-03T12:17:38;2.67;;;2.57;;
71091;SDS011;58751;50.708;7.134;2022-09-03T12:20:10;6.13;;;2.70;;
71091;SDS011;58751;50.708;7.134;2022-09-03T12:22:35;3.43;;;3.13;;
71091;SDS011;58751;50.708;7.134;2022-09-03T12:25:06;2.97;;;2.67;;
71091;SDS011;58751;50.708;7.134;2022-09-03T12:27:32;3.80;;;2.57;;
71091;SDS011;58751;50.708;7.134;2022-09-03T12:29:59;2.97;;;2.77;;
71091;SDS011;58751;50.708;7.134;2022-09-03T12:32:25;4.17;;;2.30;;
71091;SDS011;58751;50.708;7.134;2022-09-03T12:34:51;3.60;;;2.90;;
71091;SDS011;58751;50.708;7.134;2022-09-03T12:37:17;3.20;;;2.40;;
71091;SDS011;58751;50.708;7.134;2022-09-03T12:39:48;4.33;;;2.63;;
71091;SDS011;58751;50.708;7.134;2022-09-03T12:42:15;3.43;;;3.00;;
71091;SDS011;58751;50.708;7.134;2022-09-03T12:44:42;2.80;;;2.60;;
71091;SDS011;58751;50.708;7.134;2022-09-03T12:47:10;3.10;;;2.87;;
71091;SDS011;58751;50.708;7.134;2022-09-03T12:49:36;3.23;;;2.93;;
71091;SDS011;58751;50.708;7.134;2022-09-03T12:52:02;2.87;;;2.67;;
71091;SDS011;58751;50.708;7.134;2022-09-03T12:54:28;3.17;;;2.97;;
71091;SDS011;58751;50.708;7.134;2022-09-03T12:56:54;2.40;;;2.20;;
71091;SDS011;58751;50.708;7.134;2022-09-03T12:59:20;2.83;;;2.63;;
71091;SDS011;58751;50.708;7.134;2022-09-03T13:01:46;4.13;;;2.37;;
71091;SDS011;58751;50.708;7.134;2022-09-03T13:04:15;2.80;;;2.60;;
71091;SDS011;58751;50.708;7.134;2022-09-03T13:06:44;2.30;;;2.10;;
71091;SDS011;58751;50.708;7.134;2022-09-03T13:09:11;2.70;;;2.50;;
71091;SDS011;58751;50.708;7.134;2022-09-03T13:11:38;3.37;;;2.53;;
71091;SDS011;58751;50.708;7.134;2022-09-03T13:14:03;5.00;;;3.07;;
71091;SDS011;58751;50.708;7.134;2022-09-03T13:19:23;3.00;;;2.70;;
71091;SDS011;58751;50.708;7.134;2022-09-03T13:21:53;3.80;;;2.90;;
71091;SDS011;58751;50.708;7.134;2022-09-03T13:24:31;5.60;;;2.90;;
71091;SDS011;58751;50.708;7.134;2022-09-03T13:27:00;7.97;;;3.20;;
71091;SDS011;58751;50.708;7.134;2022-09-03T13:29:33;3.23;;;2.93;;
71091;SDS011;58751;50.708;7.134;2022-09-03T13:32:01;3.07;;;2.87;;
71091;SDS011;58751;50.708;7.134;2022-09-03T13:34:32;3.23;;;2.90;;
71091;SDS011;58751;50.708;7.134;2022-09-03T13:37:02;4.63;;;2.63;;
71091;SDS011;58751;50.708;7.134;2022-09-03T13:39:34;5.20;;;2.57;;
71091;SDS011;58751;50.708;7.134;2022-09-03T13:42:04;6.20;;;2.80;;
71091;SDS011;58751;50.708;7.134;2022-09-03T13:44:33;3.13;;;2.40;;
71091;SDS011;58751;50.708;7.134;2022-09-03T13:47:00;2.63;;;2.43;;
71091;SDS011;58751;50.708;7.134;2022-09-03T13:49:29;2.67;;;2.47;;
71091;SDS011;58751;50.708;7.134;2022-09-03T13:51:59;2.70;;;2.13;;
71091;SDS011;58751;50.708;7.134;2022-09-03T13:54:26;2.23;;;2.13;;
71091;SDS011;58751;50.708;7.134;2022-09-03T13:56:53;2.47;;;2.37;;
71091;SDS011;58751;50.708;7.134;2022-09-03T13:59:22;3.10;;;2.27;;
71091;SDS011;58751;50.708;7.134;2022-09-03T14:01:54;2.63;;;2.43;;
71091;SDS011;58751;50.708;7.134;2022-09-03T14:04:24;2.90;;;2.70;;
71091;SDS011;58751;50.708;7.134;2022-09-03T14:06:53;3.20;;;2.20;;
71091;SDS011;58751;50.708;7.134;2022-09-03T14:09:26;2.43;;;2.23;;
71091;SDS011;58751;50.708;7.134;2022-09-03T14:11:54;2.57;;;2.20;;
71091;SDS011;58751;50.708;7.134;2022-09-03T14:14:28;2.87;;;2.30;;
71091;SDS011;58751;50.708;7.134;2022-09-03T14:16:56;2.67;;;2.47;;
71091;SDS011;58751;50.708;7.134;2022-09-03T14:19:28;2.77;;;2.47;;
71091;SDS011;58751;50.708;7.134;2022-09-03T14:21:57;3.03;;;2.30;;
71091;SDS011;58751;50.708;7.134;2022-09-03T14:24:25;2.47;;;2.23;;
71091;SDS011;58751;50.708;7.134;2022-09-03T14:26:52;2.83;;;2.20;;
71091;SDS011;58751;50.708;7.134;2022-09-03T14:29:20;2.73;;;2.53;;
71091;SDS011;58751;50.708;7.134;2022-09-03T14:32:00;3.10;;;2.53;;
71091;SDS011;58751;50.708;7.134;2022-09-03T14:34:31;2.70;;;2.50;;
71091;SDS011;58751;50.708;7.134;2022-09-03T14:37:01;3.30;;;2.67;;
71091;SDS011;58751;50.708;7.134;2022-09-03T14:39:31;4.10;;;2.57;;
71091;SDS011;58751;50.708;7.134;2022-09-03T14:42:12;3.33;;;3.10;;
71091;SDS011;58751;50.708;7.134;2022-09-03T14:44:44;2.73;;;2.53;;
71091;SDS011;58751;50.708;7.134;2022-09-03T14:47:17;6.93;;;2.60;;
71091;SDS011;58751;50.708;7.134;2022-09-03T14:49:52;2.83;;;2.63;;
71091;SDS011;58751;50.708;7.134;2022-09-03T14:52:25;2.60;;;2.17;;